Time;durP1;ratioP1;P1;durP2;ratioP2;P2;SDS_P1;SDS_P2;PMS_P1;PMS_P2;Temp;Humidity;BMP_temperature;BMP_pressure;BME280_temperature;BME280_humidity;BME280_pressure;Samples;Min_cycle;Max_cycle;Signal;HPM_P1;HPM_P2
2024/03/25 00:01:04;;;;;;;5.20;4.80;;;6.50;1.00;;;;;;5085523;27;20459;-72
2024/03/25 00:03:31;;;;;;;4.78;4.22;;;6.50;1.00;;;;;;5085447;27;21025;-73
2024/03/25 00:05:57;;;;;;;4.07;3.75;;;6.40;1.00;;;;;;5087980;27;20270;-71
2024/03/25 00:08:24;;;;;;;4.20;3.90;;;6.40;1.00;;;;;;5086499;27;20257;-72
2024/03/25 00:10:50;;;;;;;4.28;3.97;;;6.40;1.00;;;;;;5101370;27;20769;-73
2024/03/25 00:13:16;;;;;;;4.30;4.00;;;6.30;1.00;;;;;;5098119;27;20270;-71
2024/03/25 00:15:43;;;;;;;4.63;4.20;;;6.40;1.00;;;;;;5100338;27;20973;-71
2024/03/25 00:18:12;;;;;;;6.15;4.25;;;6.40;1.00;;;;;;5100122;27;20288;-71
2024/03/25 00:20:38;;;;;;;4.50;3.83;;;6.40;1.00;;;;;;5101600;27;20243;-72
2024/03/25 00:23:05;;;;;;;5.43;4.30;;;6.40;1.00;;;;;;5103636;27;20725;-72
2024/03/25 00:25:31;;;;;;;4.68;4.20;;;6.40;1.00;;;;;;5104279;27;21195;-73
2024/03/25 00:27:58;;;;;;;4.77;4.33;;;6.40;1.00;;;;;;5099034;27;20245;-72
2024/03/25 00:30:24;;;;;;;4.13;3.75;;;6.40;1.00;;;;;;5101582;27;20470;-72
2024/03/25 00:32:51;;;;;;;3.90;3.43;;;6.40;1.00;;;;;;5098971;27;20602;-72
2024/03/25 00:35:18;;;;;;;5.40;3.93;;;6.40;1.00;;;;;;5102306;27;20454;-74
2024/03/25 00:37:45;;;;;;;4.72;4.30;;;6.40;1.00;;;;;;5099899;27;20457;-74
2024/03/25 00:40:12;;;;;;;6.30;4.63;;;6.40;1.00;;;;;;5103067;27;20677;-73
2024/03/25 00:42:38;;;;;;;6.03;4.65;;;6.40;1.00;;;;;;5102179;27;20467;-72
2024/03/25 00:45:05;;;;;;;5.77;5.17;;;6.40;1.00;;;;;;5078912;28;20291;-71
2024/03/25 00:47:33;;;;;;;5.68;5.07;;;6.40;1.00;;;;;;5076544;28;20847;-71
2024/03/25 00:49:59;;;;;;;5.70;5.15;;;6.40;1.00;;;;;;5082959;27;20241;-73
2024/03/25 00:52:27;;;;;;;6.75;5.28;;;6.30;1.00;;;;;;5104975;27;20241;-72
2024/03/25 00:54:53;;;;;;;6.10;5.33;;;6.30;1.00;;;;;;5077130;27;20242;-73
2024/03/25 00:57:20;;;;;;;6.88;5.00;;;6.30;1.00;;;;;;5080849;27;20456;-74
2024/03/25 00:59:46;;;;;;;6.80;5.32;;;6.30;1.00;;;;;;5079459;27;20333;-75
2024/03/25 01:02:13;;;;;;;5.27;4.77;;;6.30;1.00;;;;;;5087167;27;20618;-72
2024/03/25 01:04:39;;;;;;;6.00;4.90;;;6.40;1.00;;;;;;5078842;28;20469;-71
2024/03/25 01:07:06;;;;;;;9.10;5.97;;;6.40;1.00;;;;;;5084564;27;20456;-75
2024/03/25 01:09:33;;;;;;;6.78;5.80;;;6.40;1.00;;;;;;5098744;27;21107;-77
2024/03/25 01:12:00;;;;;;;9.23;5.78;;;6.40;1.00;;;;;;5097276;27;20774;-76
2024/03/25 01:14:26;;;;;;;5.80;4.95;;;6.40;1.00;;;;;;5081136;28;20244;-76
2024/03/25 01:16:53;;;;;;;6.50;5.90;;;6.40;1.00;;;;;;5081323;28;20725;-76
2024/03/25 01:19:20;;;;;;;5.80;5.20;;;6.30;1.00;;;;;;5081090;28;20550;-76
2024/03/25 01:21:47;;;;;;;5.50;5.00;;;6.40;1.00;;;;;;5079308;27;20248;-78
2024/03/25 01:24:14;;;;;;;6.55;5.95;;;6.40;1.00;;;;;;5083357;27;20263;-77
2024/03/25 01:26:42;;;;;;;6.80;6.10;;;6.40;1.00;;;;;;5082071;28;20705;-78
2024/03/25 01:29:08;;;;;;;6.72;6.07;;;6.30;1.00;;;;;;5084713;28;20264;-75
2024/03/25 01:31:35;;;;;;;8.67;5.97;;;6.30;1.00;;;;;;5089308;27;20751;-76
2024/03/25 01:34:01;;;;;;;7.07;6.38;;;6.30;1.00;;;;;;5091728;27;20955;-77
2024/03/25 01:36:31;;;;;;;7.70;6.30;;;6.30;1.00;;;;;;5097655;27;20269;-76
2024/03/25 01:38:57;;;;;;;6.88;6.18;;;6.40;1.00;;;;;;5107370;27;20462;-75
2024/03/25 01:41:24;;;;;;;7.43;6.38;;;6.40;1.00;;;;;;5105338;27;20245;-76
2024/03/25 01:43:52;;;;;;;8.13;7.00;;;6.40;1.00;;;;;;5104930;27;20248;-77
2024/03/25 01:46:21;;;;;;;7.43;6.70;;;6.40;1.00;;;;;;5103464;27;20257;-75
2024/03/25 01:48:48;;;;;;;6.80;6.10;;;6.40;1.00;;;;;;5101052;27;20237;-76
2024/03/25 01:51:18;;;;;;;7.45;6.35;;;6.40;1.00;;;;;;5102069;27;20245;-74
2024/03/25 01:53:46;;;;;;;7.00;6.10;;;6.50;1.00;;;;;;5104388;27;20248;-77
2024/03/25 01:56:15;;;;;;;7.90;6.90;;;6.50;1.00;;;;;;5104469;27;20327;-77
2024/03/25 01:58:41;;;;;;;8.00;7.20;;;6.50;1.00;;;;;;5101757;27;20321;-76
2024/03/25 02:01:13;;;;;;;7.67;6.97;;;6.50;1.00;;;;;;5104797;27;20294;-77
2024/03/25 02:03:40;;;;;;;8.65;7.22;;;6.60;1.00;;;;;;5101359;27;20970;-76
2024/03/25 02:06:16;;;;;;;10.80;7.60;;;6.60;1.00;;;;;;5100695;27;20238;-77
2024/03/25 02:08:43;;;;;;;7.30;6.23;;;6.70;1.00;;;;;;5103243;27;20477;-76
2024/03/25 02:11:12;;;;;;;8.48;7.25;;;6.70;1.00;;;;;;5103376;27;20477;-77
2024/03/25 02:13:38;;;;;;;6.10;5.47;;;6.80;1.00;;;;;;5100964;27;20236;-76
2024/03/25 02:16:06;;;;;;;5.82;4.57;;;6.70;1.00;;;;;;5100123;27;21056;-72
2024/03/25 02:18:34;;;;;;;3.55;3.25;;;6.60;1.00;;;;;;5103179;27;20286;-72
2024/03/25 02:21:01;;;;;;;4.50;3.30;;;6.50;1.00;;;;;;5101714;27;20359;-71
2024/03/25 02:23:27;;;;;;;2.72;2.20;;;6.40;1.00;;;;;;5101760;27;20338;-72
2024/03/25 02:25:56;;;;;;;2.45;2.20;;;6.30;1.00;;;;;;5100416;27;20234;-72
2024/03/25 02:28:22;;;;;;;2.80;2.30;;;6.30;1.00;;;;;;5102043;27;20241;-73
2024/03/25 02:30:48;;;;;;;2.63;2.40;;;6.20;1.00;;;;;;5098804;27;20242;-72
2024/03/25 02:33:14;;;;;;;1.83;1.70;;;6.20;1.00;;;;;;5085725;27;21442;-72
2024/03/25 02:35:43;;;;;;;2.37;1.93;;;6.20;1.00;;;;;;5078133;27;20289;-73
2024/03/25 02:38:09;;;;;;;2.10;1.60;;;6.10;1.00;;;;;;5080803;28;20512;-72
2024/03/25 02:40:37;;;;;;;2.13;1.88;;;6.10;1.00;;;;;;5080947;28;20240;-72
2024/03/25 02:43:07;;;;;;;2.08;1.60;;;6.10;1.00;;;;;;5082540;27;20244;-72
2024/03/25 02:45:34;;;;;;;3.17;2.58;;;6.10;1.00;;;;;;5075893;28;20241;-72
2024/03/25 02:47:59;;;;;;;2.88;2.63;;;6.20;1.00;;;;;;5075406;27;20761;-72
2024/03/25 02:50:26;;;;;;;4.17;3.63;;;6.20;1.00;;;;;;5074652;28;20245;-74
2024/03/25 02:52:54;;;;;;;5.07;2.75;;;6.20;1.00;;;;;;5075904;27;20496;-73
2024/03/25 02:55:19;;;;;;;3.33;3.00;;;6.10;1.00;;;;;;5077108;27;20323;-72
2024/03/25 02:57:46;;;;;;;3.30;3.00;;;6.10;1.00;;;;;;5101729;27;20254;-70
2024/03/25 03:00:14;;;;;;;3.63;2.80;;;6.10;1.00;;;;;;5102088;27;20331;-74
2024/03/25 03:02:41;;;;;;;3.25;2.35;;;6.10;1.00;;;;;;5102272;27;20272;-73
2024/03/25 03:05:08;;;;;;;2.60;2.30;;;6.10;1.00;;;;;;5100707;27;20318;-72
2024/03/25 03:07:35;;;;;;;5.40;2.25;;;6.10;1.00;;;;;;5102845;27;20715;-71
2024/03/25 03:10:01;;;;;;;3.05;2.10;;;6.10;1.00;;;;;;5100513;27;20247;-71
2024/03/25 03:12:27;;;;;;;3.00;2.13;;;6.10;1.00;;;;;;5099403;27;20255;-75
2024/03/25 03:14:53;;;;;;;2.30;1.95;;;6.00;1.00;;;;;;5102069;27;21319;-72
2024/03/25 03:17:22;;;;;;;2.70;2.13;;;6.00;1.00;;;;;;5103022;27;20287;-71
2024/03/25 03:19:48;;;;;;;3.33;2.60;;;6.00;1.00;;;;;;5101375;27;20582;-71
2024/03/25 03:22:14;;;;;;;3.80;2.55;;;6.10;1.00;;;;;;5102361;27;20821;-72
2024/03/25 03:24:41;;;;;;;3.33;2.60;;;6.00;1.00;;;;;;5101124;27;20245;-72
2024/03/25 03:27:07;;;;;;;5.35;3.90;;;6.00;1.00;;;;;;5099768;27;21874;-72
2024/03/25 03:29:34;;;;;;;6.85;3.85;;;6.10;1.00;;;;;;5103626;27;20243;-73
2024/03/25 03:32:00;;;;;;;5.68;4.28;;;6.10;1.00;;;;;;5083212;27;20326;-73
2024/03/25 03:34:29;;;;;;;5.20;4.00;;;6.10;1.00;;;;;;5077103;28;20734;-73
2024/03/25 03:36:55;;;;;;;5.13;3.53;;;6.10;1.00;;;;;;5078783;27;22526;-73
2024/03/25 03:39:22;;;;;;;5.87;4.27;;;6.20;1.00;;;;;;5078233;28;20236;-71
2024/03/25 03:41:47;;;;;;;6.32;5.03;;;6.20;1.00;;;;;;5075354;27;20565;-71
2024/03/25 03:44:15;;;;;;;4.93;4.35;;;6.20;1.00;;;;;;5089559;27;20246;-71
2024/03/25 03:46:41;;;;;;;4.88;4.25;;;6.20;1.00;;;;;;5081756;28;20855;-71
2024/03/25 03:49:08;;;;;;;5.37;4.47;;;6.20;1.00;;;;;;5078545;28;20245;-73
2024/03/25 03:51:35;;;;;;;10.02;5.53;;;6.20;1.00;;;;;;5099464;27;20465;-72
2024/03/25 03:54:02;;;;;;;4.68;4.25;;;6.20;1.00;;;;;;5098043;27;20247;-74
2024/03/25 03:56:28;;;;;;;7.07;4.78;;;6.10;1.00;;;;;;5088233;27;20370;-72
2024/03/25 03:58:55;;;;;;;8.50;5.00;;;6.10;1.00;;;;;;5080128;27;20244;-75
2024/03/25 04:01:20;;;;;;;5.10;4.60;;;6.10;1.00;;;;;;5079888;27;20548;-74
2024/03/25 04:03:48;;;;;;;6.97;4.70;;;6.00;1.00;;;;;;5077163;27;20316;-72
2024/03/25 04:06:15;;;;;;;5.95;4.40;;;6.00;1.00;;;;;;5082118;27;20467;-73
2024/03/25 04:08:43;;;;;;;4.57;4.18;;;6.00;1.00;;;;;;5095027;27;20233;-75
2024/03/25 04:11:11;;;;;;;5.88;4.30;;;6.10;1.00;;;;;;5096695;27;20245;-72
2024/03/25 04:13:38;;;;;;;5.57;4.20;;;6.10;1.00;;;;;;5102979;27;20231;-74
2024/03/25 04:16:06;;;;;;;5.07;4.03;;;6.10;1.00;;;;;;5098762;27;20254;-72
2024/03/25 04:18:33;;;;;;;4.05;3.67;;;6.10;1.00;;;;;;5099966;27;20350;-72
2024/03/25 04:21:04;;;;;;;3.65;3.35;;;6.10;1.00;;;;;;5098129;27;20243;-73
2024/03/25 04:23:31;;;;;;;7.20;4.30;;;6.10;1.00;;;;;;5103697;27;20248;-73
2024/03/25 04:26:02;;;;;;;5.35;3.75;;;6.10;1.00;;;;;;5098998;27;20318;-75
2024/03/25 04:28:28;;;;;;;6.00;3.00;;;6.10;1.00;;;;;;5099220;27;20426;-71
2024/03/25 04:30:55;;;;;;;3.50;3.20;;;6.00;1.00;;;;;;5100426;27;20241;-74
2024/03/25 04:33:22;;;;;;;3.70;3.40;;;6.00;1.00;;;;;;5102267;27;20264;-73
2024/03/25 04:35:48;;;;;;;4.18;3.65;;;6.00;1.00;;;;;;5098980;27;20327;-73
